Time;durP1;ratioP1;P1;durP2;ratioP2;P2;SDS_P1;SDS_P2;PMS_P1;PMS_P2;Temp;Humidity;BMP_temperature;BMP_pressure;BME280_temperature;BME280_humidity;BME280_pressure;Samples;Min_cycle;Max_cycle;Signal;HPM_P1;HPM_P2
2022/06/14 00:02:56;;;;;;;;;11.20;8.80;;;;;23.97;48.88;99363.56;5102048;27;8814;-77
2022/06/14 00:05:43;;;;;;;;;11.20;9.60;;;;;23.70;49.59;99372.16;5129657;27;8825;-77
2022/06/14 00:08:30;;;;;;;;;9.40;8.80;;;;;23.61;50.18;99374.50;5100047;27;8916;-77
2022/06/14 00:11:02;;;;;;;;;10.60;9.60;;;;;23.60;50.16;99378.13;5129763;27;8826;-77
2022/06/14 00:13:30;;;;;;;;;7.80;7.80;;;;;23.71;49.73;99378.38;5111402;27;8861;-77
2022/06/14 00:15:59;;;;;;;;;8.60;7.40;;;;;23.57;50.28;99376.47;5139953;27;8881;-77
2022/06/14 00:18:32;;;;;;;;;8.60;7.60;;;;;23.63;50.08;99381.47;5112227;27;8823;-77
2022/06/14 00:21:01;;;;;;;;;8.20;7.80;;;;;23.46;50.60;99384.22;5090669;28;8840;-76
2022/06/14 00:23:30;;;;;;;;;8.40;8.40;;;;;23.53;50.61;99390.91;5109245;28;8847;-76
2022/06/14 00:26:00;;;;;;;;;9.20;8.60;;;;;23.37;50.70;99384.75;5066585;27;8951;-78
2022/06/14 00:28:32;;;;;;;;;9.00;8.20;;;;;23.33;51.10;99384.06;5106579;28;8855;-78
2022/06/14 00:31:04;;;;;;;;;7.20;7.20;;;;;23.21;51.66;99390.91;5090030;28;8855;-77
2022/06/14 00:33:35;;;;;;;;;7.60;7.00;;;;;23.25;51.56;99394.25;5106798;28;8855;-77
2022/06/14 00:36:06;;;;;;;;;7.00;7.00;;;;;23.29;51.15;99391.34;5087108;28;8838;-78
2022/06/14 00:38:36;;;;;;;;;8.20;8.20;;;;;23.26;51.22;99407.47;5019692;28;8939;-77
2022/06/14 00:41:07;;;;;;;;;9.00;9.00;;;;;23.27;51.10;99393.25;5086046;28;8852;-77
2022/06/14 00:43:36;;;;;;;;;10.80;8.80;;;;;23.34;51.04;99393.75;5074180;28;8835;-78
2022/06/14 00:46:17;;;;;;;;;7.80;7.80;;;;;23.41;50.66;99396.94;5106136;28;8828;-78
2022/06/14 00:48:57;;;;;;;;;9.00;9.00;;;;;23.29;50.98;99402.00;5106025;28;9722;-78
2022/06/14 00:51:30;;;;;;;;;6.40;6.40;;;;;23.19;51.24;99403.44;5031612;28;9791;-77
2022/06/14 00:54:06;;;;;;;;;8.40;7.20;;;;;23.23;51.11;99410.31;5037436;28;9665;-77
2022/06/14 00:56:41;;;;;;;;;6.00;6.00;;;;;23.12;51.30;99404.72;5045484;28;9120;-76
2022/06/14 00:59:16;;;;;;;;;5.80;5.80;;;;;23.11;51.42;99411.84;5045631;28;8879;-76
2022/06/14 01:01:48;;;;;;;;;7.00;7.00;;;;;23.11;51.50;99418.97;5028986;28;8833;-74
2022/06/14 01:04:23;;;;;;;;;9.40;9.40;;;;;22.81;52.50;99413.47;5045752;28;9707;-76
2022/06/14 01:06:56;;;;;;;;;8.00;7.00;;;;;22.67;52.98;99423.03;5076918;28;8967;-78
2022/06/14 01:09:32;;;;;;;;;6.80;6.00;;;;;22.70;52.76;99422.88;5019052;28;8822;-78
2022/06/14 01:12:05;;;;;;;;;6.80;6.80;;;;;22.51;53.76;99420.31;5065340;28;8847;-76
2022/06/14 01:14:42;;;;;;;;;9.00;8.00;;;;;22.56;53.50;99418.25;5048687;28;8982;-75
2022/06/14 01:17:13;;;;;;;;;8.80;8.80;;;;;22.65;53.18;99419.59;5065211;28;8866;-76
2022/06/14 01:19:44;;;;;;;;;7.00;7.00;;;;;22.49;53.27;99422.16;5084377;28;8850;-76
2022/06/14 01:22:23;;;;;;;;;8.60;8.40;;;;;22.45;53.55;99419.75;5095384;27;8842;-78
2022/06/14 01:24:53;;;;;;;;;8.00;7.00;;;;;22.48;53.23;99425.78;5126209;27;8880;-76
2022/06/14 01:27:25;;;;;;;;;7.60;7.00;;;;;22.45;52.33;99422.41;5040881;28;8847;-76
2022/06/14 01:30:12;;;;;;;;;7.60;7.60;;;;;22.38;52.28;99429.84;5092820;28;9616;-77
2022/06/14 01:32:46;;;;;;;;;9.40;7.80;;;;;22.26;53.08;99433.13;5109687;28;8831;-77
2022/06/14 01:35:21;;;;;;;;;5.40;5.00;;;;;22.30;52.62;99434.69;5043737;28;8859;-78
2022/06/14 01:37:53;;;;;;;;;8.20;7.00;;;;;22.27;52.66;99434.84;5129378;27;9599;-75
2022/06/14 01:40:31;;;;;;;;;7.80;7.80;;;;;22.13;52.73;99448.78;5113250;27;8846;-77
2022/06/14 01:43:22;;;;;;;;;8.20;7.00;;;;;22.02;53.06;99440.47;5103529;28;8838;-78
2022/06/14 01:46:02;;;;;;;;;5.20;5.20;;;;;22.08;52.05;99453.44;5072180;28;8826;-76
2022/06/14 01:48:39;;;;;;;;;6.60;6.60;;;;;22.14;51.38;99440.75;5072333;28;8973;-76
2022/06/14 01:54:15;;;;;;;;;5.00;5.00;;;;;22.69;48.92;99445.06;5088774;28;8865;-77
2022/06/14 01:56:48;;;;;;;;;7.00;7.00;;;;;22.98;48.18;99442.66;5072076;28;8834;-77
2022/06/14 01:59:24;;;;;;;;;7.00;7.00;;;;;23.23;47.65;99444.03;5110355;27;8849;-77
2022/06/14 02:02:01;;;;;;;;;7.00;7.00;;;;;23.48;47.07;99447.06;5097591;27;8869;-76
2022/06/14 02:04:39;;;;;;;;;6.00;6.00;;;;;23.60;46.38;99447.34;5114157;27;8933;-77
2022/06/14 02:07:18;;;;;;;;;6.00;6.00;;;;;23.24;46.73;99453.75;5144176;27;8839;-77
2022/06/14 02:09:58;;;;;;;;;6.00;6.00;;;;;23.01;46.96;99458.47;5117439;27;9664;-76
2022/06/14 02:12:38;;;;;;;;;7.40;6.40;;;;;22.78;45.99;99457.03;5153380;27;8812;-78
2022/06/14 02:15:15;;;;;;;;;8.20;7.20;;;;;22.63;46.88;99455.16;5134675;27;8824;-76
2022/06/14 02:17:53;;;;;;;;;7.00;6.00;;;;;22.61;46.11;99462.34;5121824;27;8860;-77
2022/06/14 02:20:28;;;;;;;;;7.20;7.20;;;;;22.56;44.53;99468.75;5093254;28;8864;-77
2022/06/14 02:23:06;;;;;;;;;7.60;7.60;;;;;22.62;45.26;99472.91;5124325;27;8816;-76
2022/06/14 02:25:44;;;;;;;;;7.00;7.00;;;;;22.56;45.28;99468.75;5134513;27;8827;-76
2022/06/14 02:28:22;;;;;;;;;6.00;6.00;;;;;22.49;43.50;99475.31;5134520;27;8911;-80
2022/06/14 02:30:57;;;;;;;;;7.20;6.20;;;;;22.32;44.45;99486.78;5134227;27;9592;-77
2022/06/14 02:33:34;;;;;;;;;6.80;6.80;;;;;22.47;43.87;99479.00;5136192;27;8928;-78
2022/06/14 02:36:07;;;;;;;;;6.60;6.60;;;;;22.46;44.06;99486.13;5043124;28;8852;-76
2022/06/14 02:38:42;;;;;;;;;8.00;7.00;;;;;22.41;44.14;99497.91;5097430;28;8836;-77
2022/06/14 02:41:20;;;;;;;;;7.00;7.00;;;;;22.13;43.49;99499.25;5106083;27;8858;-76
2022/06/14 02:43:54;;;;;;;;;5.80;5.80;;;;;22.23;44.19;99505.84;5168158;27;8862;-77
2022/06/14 02:46:32;;;;;;;;;6.80;6.80;;;;;22.15;43.95;99500.88;5153065;27;8868;-77
2022/06/14 02:49:06;;;;;;;;;5.40;5.00;;;;;22.14;44.36;99512.44;5151032;27;8839;-77
2022/06/14 02:51:42;;;;;;;;;6.00;6.00;;;;;22.18;44.86;99521.13;5111888;27;8827;-77
2022/06/14 02:54:16;;;;;;;;;6.00;5.20;;;;;22.10;44.71;99518.84;5092481;28;8951;-78
2022/06/14 02:57:10;;;;;;;;;5.00;5.00;;;;;22.23;44.88;99539.50;5110998;28;8819;-77
2022/06/14 03:00:05;;;;;;;;;6.80;6.40;;;;;22.44;44.75;99542.91;5110612;28;8823;-77
2022/06/14 03:02:58;;;;;;;;;5.80;5.80;;;;;22.18;45.25;99540.59;5110959;28;8812;-77
2022/06/14 03:05:50;;;;;;;;;33.60;32.00;;;;;22.05;44.13;99555.38;5125321;27;8843;-78
2022/06/14 03:08:42;;;;;;;;;6.00;4.80;;;;;22.01;45.19;99553.81;5102491;28;8823;-76
2022/06/14 03:11:47;;;;;;;;;5.80;5.80;;;;;21.82;45.48;99563.59;5096499;27;8803;-78
2022/06/14 03:14:46;;;;;;;;;6.20;5.00;;;;;21.68;44.98;99578.38;5151225;27;8831;-76
2022/06/14 03:17:47;;;;;;;;;5.60;4.80;;;;;21.84;42.80;99577.66;5087079;28;8971;-76
2022/06/14 03:20:45;;;;;;;;;5.00;4.80;;;;;21.88;42.59;99582.75;5075851;28;8805;-78
2022/06/14 03:23:23;;;;;;;;;5.60;5.40;;;;;21.87;42.97;99586.34;5068361;28;8936;-77
2022/06/14 03:25:58;;;;;;;;;7.80;6.60;;;;;21.75;44.50;99590.41;5011284;28;8968;-77
2022/06/14 03:28:35;;;;;;;;;5.80;5.40;;;;;21.97;44.30;99600.03;5027358;28;8853;-76
2022/06/14 03:31:09;;;;;;;;;5.60;5.60;;;;;21.82;43.17;99614.88;5026280;28;8843;-78
2022/06/14 03:33:45;;;;;;;;;5.20;5.00;;;;;21.48;43.94;99608.44;5050214;28;8868;-77
2022/06/14 03:36:15;;;;;;;;;6.80;6.80;;;;;21.70;42.33;99623.41;4984733;28;8871;-78
2022/06/14 03:38:49;;;;;;;;;5.80;4.80;;;;;21.59;42.92;99627.41;5027160;28;8884;-77
2022/06/14 03:41:21;;;;;;;;;6.20;6.20;;;;;21.27;44.39;99623.50;5003675;28;8870;-78
2022/06/14 03:43:52;;;;;;;;;7.80;7.80;;;;;21.31;44.33;99645.44;4991105;28;8865;-78
2022/06/14 03:46:32;;;;;;;;;5.60;5.00;;;;;21.42;44.07;99645.84;5007148;28;8851;-77
2022/06/14 03:49:07;;;;;;;;;6.00;6.00;;;;;21.31;44.38;99640.13;5022112;28;8869;-77
2022/06/14 03:51:47;;;;;;;;;6.60;6.60;;;;;21.46;44.03;99646.59;5026791;28;9540;-77
2022/06/14 03:54:31;;;;;;;;;6.20;6.20;;;;;21.37;44.22;99646.03;5023681;28;8865;-77
2022/06/14 03:57:14;;;;;;;;;5.00;5.00;;;;;21.52;43.83;99646.31;5028243;28;8874;-78
2022/06/14 04:00:03;;;;;;;;;5.40;4.80;;;;;21.30;46.12;99646.34;5046267;28;8853;-79
2022/06/14 04:02:59;;;;;;;;;6.20;6.20;;;;;21.30;46.90;99660.47;5026089;28;9110;-75
2022/06/14 04:05:43;;;;;;;;;8.00;7.20;;;;;20.97;47.47;99655.69;4946487;28;8871;-77
2022/06/14 04:08:21;;;;;;;;;7.00;7.00;;;;;20.83;48.12;99668.63;4928983;29;8877;-76
2022/06/14 04:10:57;;;;;;;;;7.40;7.40;;;;;20.78;47.59;99671.47;4946308;28;8886;-75
2022/06/14 04:13:34;;;;;;;;;6.60;6.60;;;;;20.53;48.49;99668.03;4938227;28;8871;-76
2022/06/14 04:16:11;;;;;;;;;6.40;6.40;;;;;20.28;48.69;99663.69;4967240;28;8917;-75
2022/06/14 04:18:48;;;;;;;;;7.00;7.00;;;;;20.23;49.29;99670.97;4919170;28;8993;-76
2022/06/14 04:21:29;;;;;;;;;7.20;7.00;;;;;20.12;49.43;99666.09;4978311;28;8860;-77
2022/06/14 04:24:10;;;;;;;;;5.60;5.60;;;;;20.25;49.03;99670.00;4956341;28;8884;-79
2022/06/14 04:26:46;;;;;;;;;7.80;6.80;;;;;20.20;49.32;99681.69;4935261;28;8977;-75
2022/06/14 04:29:23;;;;;;;;;9.20;9.00;;;;;19.99;49.70;99689.50;4974947;28;9606;-76
2022/06/14 04:32:00;;;;;;;;;7.20;7.20;;;;;20.03;50.06;99690.25;4995690;28;8841;-75
2022/06/14 04:34:41;;;;;;;;;7.00;7.00;;;;;19.89;50.90;99679.31;4990369;28;8855;-77
2022/06/14 04:37:15;;;;;;;;;7.40;7.40;;;;;19.99;50.53;99689.50;4974109;28;8887;-76
2022/06/14 04:39:47;;;;;;;;;8.80;7.20;;;;;19.92;50.90;99687.13;4997985;28;8842;-78
2022/06/14 04:42:20;;;;;;;;;7.00;6.40;;;;;19.55;52.00;99691.09;5070230;27;8839;-76
2022/06/14 04:44:54;;;;;;;;;6.40;6.40;;;;;19.55;52.38;99693.72;5117581;28;8839;-77
2022/06/14 04:47:28;;;;;;;;;9.60;8.60;;;;;19.65;52.22;99695.97;5090954;28;8871;-78
2022/06/14 04:50:06;;;;;;;;;9.20;8.40;;;;;19.56;52.40;99706.03;5090712;27;8934;-76
2022/06/14 04:52:40;;;;;;;;;7.00;6.80;;;;;19.48;52.50;99711.59;5118801;27;9572;-75
2022/06/14 04:55:13;;;;;;;;;8.00;8.00;;;;;19.53;52.65;99716.69;5134824;27;9569;-77
2022/06/14 04:57:48;;;;;;;;;10.20;10.20;;;;;19.22;53.71;99715.97;5092913;27;8879;-77
2022/06/14 05:00:21;;;;;;;;;9.00;8.00;;;;;19.17;54.22;99722.31;5109719;27;8825;-75
2022/06/14 05:02:55;;;;;;;;;8.00;7.00;;;;;19.20;53.90;99714.28;5111749;27;8849;-75
2022/06/14 05:05:32;;;;;;;;;8.60;8.00;;;;;19.17;54.30;99733.78;5130057;27;8882;-75
2022/06/14 05:08:07;;;;;;;;;7.20;7.00;;;;;18.99;55.05;99726.44;5080483;27;8869;-75
2022/06/14 05:10:44;;;;;;;;;10.60;10.20;;;;;18.95;55.42;99738.88;5118045;27;8885;-77
2022/06/14 05:13:19;;;;;;;;;10.20;9.00;;;;;19.13;55.29;99749.78;5093816;27;8984;-75
2022/06/14 05:15:54;;;;;;;;;9.60;8.20;;;;;19.21;54.73;99747.75;5123145;27;8936;-76
2022/06/14 05:18:36;;;;;;;;;7.60;6.20;;;;;19.31;55.09;99749.19;5131040;27;8962;-78
2022/06/14 05:21:10;;;;;;;;;8.00;8.00;;;;;19.11;55.67;99748.97;5114742;27;8850;-77
2022/06/14 05:23:45;;;;;;;;;6.20;5.40;;;;;19.07;56.26;99745.53;5092284;27;9641;-73
2022/06/14 05:26:22;;;;;;;;;9.00;9.00;;;;;19.12;56.10;99756.00;5153095;27;8846;-64
2022/06/14 05:29:13;;;;;;;;;7.40;7.40;;;;;19.36;55.70;99749.03;5152966;27;8865;-66
2022/06/14 05:31:50;;;;;;;;;6.80;6.80;;;;;19.76;54.28;99747.69;5117496;27;8891;-75
2022/06/14 05:34:33;;;;;;;;;6.60;6.60;;;;;20.13;53.49;99741.97;5134038;27;8862;-72
2022/06/14 05:37:13;;;;;;;;;5.60;5.00;;;;;20.46;52.46;99736.31;5132670;27;8876;-75
2022/06/14 05:39:49;;;;;;;;;8.20;8.20;;;;;20.64;52.06;99740.94;5096445;27;8869;-74
2022/06/14 05:42:21;;;;;;;;;8.20;8.00;;;;;20.89;51.37;99739.09;5132605;27;8852;-73
2022/06/14 05:44:56;;;;;;;;;8.00;8.00;;;;;21.14;51.01;99738.97;5134715;27;9987;-75
2022/06/14 05:47:30;;;;;;;;;10.20;10.20;;;;;21.19;50.47;99729.91;5134441;27;8891;-75
2022/06/14 05:50:03;;;;;;;;;7.60;7.00;;;;;21.57;49.60;99737.22;5152922;27;8827;-73
2022/06/14 05:52:39;;;;;;;;;7.40;7.40;;;;;21.83;48.89;99737.88;5142132;27;8814;-73
2022/06/14 05:55:14;;;;;;;;;9.00;8.20;;;;;21.89;48.96;99737.59;5095338;27;8841;-74
2022/06/14 05:57:49;;;;;;;;;8.40;7.80;;;;;21.13;50.60;99735.44;5132423;27;8854;-74
2022/06/14 06:00:24;;;;;;;;;9.00;8.80;;;;;20.75;51.65;99742.28;5133931;27;9610;-74
2022/06/14 06:03:00;;;;;;;;;10.80;9.20;;;;;20.03;53.37;99737.91;5140456;27;8915;-74
2022/06/14 06:05:34;;;;;;;;;10.20;10.20;;;;;19.78;54.37;99759.94;5135522;27;8815;-74
2022/06/14 06:08:13;;;;;;;;;8.20;7.40;;;;;19.56;55.11;99764.22;5111090;27;8836;-74
2022/06/14 06:10:44;;;;;;;;;9.60;9.40;;;;;19.72;54.94;99773.41;5105864;28;8825;-75
2022/06/14 06:13:19;;;;;;;;;8.20;8.20;;;;;19.65;55.26;99756.81;5111916;27;8882;-75
2022/06/14 06:15:52;;;;;;;;;8.00;7.80;;;;;19.73;55.15;99761.88;5052629;28;8845;-74
2022/06/14 06:18:29;;;;;;;;;7.00;7.00;;;;;19.84;54.60;99743.84;5090219;28;8904;-74
2022/06/14 06:21:04;;;;;;;;;12.20;12.20;;;;;20.06;54.82;99748.41;5106252;28;8851;-74
2022/06/14 06:23:41;;;;;;;;;10.80;10.80;;;;;20.19;53.96;99744.38;5103699;28;8916;-74
2022/06/14 06:26:13;;;;;;;;;10.60;10.60;;;;;19.75;54.63;99748.59;5070744;27;8874;-74
2022/06/14 06:28:47;;;;;;;;;9.40;9.00;;;;;19.61;55.29;99757.00;5107565;27;8847;-73
2022/06/14 06:31:20;;;;;;;;;7.40;7.40;;;;;19.56;56.00;99762.44;5116080;27;8831;-74
2022/06/14 06:33:51;;;;;;;;;8.20;7.80;;;;;19.40;56.53;99753.31;5128080;27;8992;-73
2022/06/14 06:36:42;;;;;;;;;6.40;5.60;;;;;19.53;56.57;99764.31;5102689;27;8847;-73
2022/06/14 06:39:26;;;;;;;;;11.20;10.80;;;;;19.66;56.24;99769.16;5080628;28;8855;-71
2022/06/14 06:42:01;;;;;;;;;14.80;13.00;;;;;19.89;55.73;99764.03;5090004;28;8840;-73
2022/06/14 06:44:37;;;;;;;;;11.00;10.60;;;;;19.92;55.30;99758.59;5099652;27;8913;-73
2022/06/14 06:47:12;;;;;;;;;7.00;7.00;;;;;19.91;55.39;99770.13;5136946;27;8836;-71
2022/06/14 06:49:54;;;;;;;;;8.00;8.00;;;;;19.74;55.76;99766.28;5151627;27;8909;-73
2022/06/14 06:52:31;;;;;;;;;12.20;11.60;;;;;19.66;56.45;99766.50;5130747;27;8837;-70
2022/06/14 06:55:05;;;;;;;;;12.60;12.00;;;;;19.84;55.72;99758.88;5075524;27;8970;-71
2022/06/14 06:57:36;;;;;;;;;12.20;11.20;;;;;20.24;54.30;99760.97;5117069;27;8844;-74
2022/06/14 07:00:08;;;;;;;;;10.00;10.00;;;;;20.40;54.02;99769.19;5109664;28;8836;-72
2022/06/14 07:02:47;;;;;;;;;11.00;10.00;;;;;20.47;54.26;99758.34;5122586;27;8839;-73
2022/06/14 07:05:17;;;;;;;;;8.00;8.00;;;;;20.58;52.90;99762.31;5150569;27;8926;-72
2022/06/14 07:07:52;;;;;;;;;10.60;10.60;;;;;20.34;53.56;99771.19;5150767;27;8827;-69
2022/06/14 07:10:30;;;;;;;;;10.00;10.00;;;;;20.27;53.74;99769.72;5132186;27;8957;-71
2022/06/14 07:13:03;;;;;;;;;11.00;10.20;;;;;20.28;54.25;99774.94;5135294;27;8843;-71
2022/06/14 07:15:36;;;;;;;;;8.60;8.00;;;;;20.34;54.42;99773.84;5105432;28;8986;-72
2022/06/14 07:18:16;;;;;;;;;10.00;10.00;;;;;20.43;53.96;99773.50;5132391;27;8855;-71
2022/06/14 07:20:51;;;;;;;;;10.00;10.00;;;;;20.01;54.67;99776.81;5150694;27;8847;-71
2022/06/14 07:23:30;;;;;;;;;11.60;11.60;;;;;20.12;54.95;99773.78;5150912;27;8807;-71
2022/06/14 07:26:08;;;;;;;;;10.60;9.00;;;;;20.23;54.82;99775.13;5096608;27;8950;-72
2022/06/14 07:28:47;;;;;;;;;9.60;9.00;;;;;20.19;54.87;99781.44;5150262;27;9040;-74
2022/06/14 07:31:27;;;;;;;;;10.20;9.80;;;;;20.36;54.62;99772.88;5135838;27;8840;-72
2022/06/14 07:33:57;;;;;;;;;9.60;9.60;;;;;20.39;54.30;99772.75;5150717;27;8839;-74
2022/06/14 07:36:34;;;;;;;;;8.40;8.20;;;;;20.24;54.38;99779.50;5097286;27;9577;-71
2022/06/14 07:39:11;;;;;;;;;8.00;8.00;;;;;20.18;54.39;99798.25;5132150;27;9549;-72
2022/06/14 07:41:48;;;;;;;;;12.80;12.80;;;;;20.44;53.81;99785.84;5142838;27;8847;-75
2022/06/14 07:44:22;;;;;;;;;9.80;9.60;;;;;20.73;52.65;99787.41;5139480;27;8932;-76
2022/06/14 07:47:04;;;;;;;;;10.20;10.20;;;;;20.39;52.88;99793.09;5125778;27;8862;-75
2022/06/14 07:49:47;;;;;;;;;9.60;9.60;;;;;20.31;53.38;99789.88;5089882;27;8862;-76
2022/06/14 07:52:22;;;;;;;;;7.20;7.20;;;;;20.17;53.58;99793.00;5125804;27;8839;-74
2022/06/14 07:54:59;;;;;;;;;10.60;10.60;;;;;20.27;53.40;99785.59;5114284;27;8823;-75
2022/06/14 07:57:35;;;;;;;;;9.00;9.00;;;;;20.27;53.81;99790.91;5140521;27;8922;-74
2022/06/14 08:03:04;;;;;;;;;8.80;7.80;;;;;20.81;52.36;99795.06;5150093;27;8943;-76
2022/06/14 08:05:36;;;;;;;;;9.60;9.60;;;;;20.76;52.36;99797.91;5145501;27;8878;-75
2022/06/14 08:08:09;;;;;;;;;9.80;9.60;;;;;21.10;51.81;99798.38;5126702;27;8928;-76
2022/06/14 08:10:44;;;;;;;;;9.20;9.20;;;;;21.19;51.47;99797.97;5149809;27;8831;-77
2022/06/14 08:13:20;;;;;;;;;8.60;8.60;;;;;21.43;50.18;99799.63;5131655;27;8905;-76
2022/06/14 08:15:52;;;;;;;;;9.00;7.80;;;;;21.14;51.58;99802.63;5120418;27;9983;-75
2022/06/14 08:18:26;;;;;;;;;9.00;9.00;;;;;21.29;50.91;99799.34;5149915;27;8831;-75
2022/06/14 08:20:58;;;;;;;;;10.20;9.80;;;;;21.40;50.16;99813.03;5149989;27;8855;-75
2022/06/14 08:23:33;;;;;;;;;9.00;9.00;;;;;21.39;49.99;99813.09;5150376;27;8820;-75
2022/06/14 08:26:08;;;;;;;;;9.20;9.20;;;;;21.50;49.73;99808.25;5131456;27;8914;-75
2022/06/14 08:28:45;;;;;;;;;9.80;9.40;;;;;21.42;49.82;99807.69;5138893;27;8888;-75
2022/06/14 08:31:19;;;;;;;;;13.60;13.60;;;;;21.08;51.23;99817.00;5124022;27;8898;-74
2022/06/14 08:33:55;;;;;;;;;12.40;11.00;;;;;21.13;51.45;99811.50;5145636;27;8898;-74
2022/06/14 08:36:32;;;;;;;;;10.20;9.60;;;;;21.25;51.08;99804.81;5099645;28;8863;-74
2022/06/14 08:39:06;;;;;;;;;8.40;8.20;;;;;21.38;51.55;99801.63;5096381;28;8962;-74
2022/06/14 08:42:04;;;;;;;;;10.00;9.60;;;;;21.60;50.91;99809.59;5106735;27;8836;-74
2022/06/14 08:44:40;;;;;;;;;12.80;12.80;;;;;21.11;52.54;99810.69;5127961;27;8884;-73
2022/06/14 08:47:35;;;;;;;;;12.60;12.60;;;;;21.57;51.63;99812.38;5074846;27;8845;-73
2022/06/14 08:50:11;;;;;;;;;12.20;12.20;;;;;21.64;51.39;99810.31;5127921;27;8826;-72
2022/06/14 08:53:02;;;;;;;;;9.00;8.00;;;;;21.93;50.64;99806.44;5105747;27;8945;-70
2022/06/14 08:56:04;;;;;;;;;9.40;9.40;;;;;22.06;50.44;99806.78;5128294;27;8848;-73
2022/06/14 08:59:18;;;;;;;;;12.00;12.00;;;;;22.02;49.09;99817.59;5023974;28;8991;-73
2022/06/14 09:02:15;;;;;;;;;8.40;8.40;;;;;21.60;49.62;99819.34;5024274;28;8900;-70
2022/06/14 09:05:16;;;;;;;;;10.20;9.20;;;;;22.06;49.86;99816.50;4995039;28;8861;-74
2022/06/14 09:08:19;;;;;;;;;11.60;10.20;;;;;21.91;49.60;99831.31;4946533;29;9027;-71
2022/06/14 09:11:18;;;;;;;;;9.00;9.00;;;;;21.69;50.63;99821.63;4946672;29;8870;-72
2022/06/14 09:14:13;;;;;;;;;9.20;9.00;;;;;22.11;50.07;99818.03;4871047;29;8952;-72
2022/06/14 09:17:08;;;;;;;;;9.80;9.80;;;;;22.50;48.18;99797.78;4810448;29;8873;-72
2022/06/14 09:20:04;;;;;;;;;10.00;10.00;;;;;22.35;48.06;99820.59;4870568;29;8870;-72
2022/06/14 09:22:38;;;;;;;;;12.40;11.20;;;;;21.90;49.62;99817.19;4855592;29;8858;-72
2022/06/14 09:25:39;;;;;;;;;9.00;9.00;;;;;21.96;50.36;99810.75;4870523;29;8874;-71
2022/06/14 09:28:31;;;;;;;;;9.40;8.80;;;;;22.46;49.25;99812.16;4870375;29;8877;-73
2022/06/14 09:31:16;;;;;;;;;10.00;8.60;;;;;22.83;48.36;99790.00;4870527;29;9090;-73
2022/06/14 09:34:24;;;;;;;;;11.60;11.60;;;;;22.63;47.31;99798.94;4870463;29;8881;-72
2022/06/14 09:37:22;;;;;;;;;17.60;15.60;;;;;22.84;47.15;99802.38;4962400;28;8872;-73
2022/06/14 09:40:18;;;;;;;;;10.20;10.20;;;;;22.59;46.68;99808.00;4944899;28;8895;-71
2022/06/14 09:43:19;;;;;;;;;8.80;8.80;;;;;22.80;47.65;99808.78;4888885;29;8899;-72
2022/06/14 09:46:25;;;;;;;;;8.40;8.40;;;;;22.80;46.51;99815.88;4935751;28;8869;-73
2022/06/14 09:49:39;;;;;;;;;10.00;10.00;;;;;22.70;46.41;99804.81;4947790;28;8866;-74
2022/06/14 09:52:50;;;;;;;;;7.80;7.80;;;;;22.98;44.27;99809.69;5012856;28;9630;-72
2022/06/14 09:55:45;;;;;;;;;9.20;9.20;;;;;23.25;43.26;99796.03;4949542;28;9019;-72
2022/06/14 09:58:34;;;;;;;;;6.80;6.80;;;;;23.52;44.49;99800.00;4950078;28;8868;-71
2022/06/14 10:01:14;;;;;;;;;8.40;8.40;;;;;23.68;44.25;99805.41;4949437;28;8881;-72
2022/06/14 10:04:30;;;;;;;;;8.60;8.60;;;;;22.77;44.43;99806.25;4949290;28;9650;-72
2022/06/14 10:07:40;;;;;;;;;9.00;9.00;;;;;22.32;45.26;99815.41;4901696;28;9034;-71
2022/06/14 10:10:42;;;;;;;;;8.00;8.00;;;;;22.28;43.94;99808.50;4873514;29;9014;-72
2022/06/14 10:13:36;;;;;;;;;10.80;8.80;;;;;22.72;43.65;99800.28;4817549;29;8870;-72
2022/06/14 10:16:19;;;;;;;;;7.80;7.80;;;;;23.10;43.39;99792.31;4817861;29;8966;-72
2022/06/14 10:19:09;;;;;;;;;8.80;7.60;;;;;23.42;42.54;99793.44;4817603;29;9804;-73
2022/06/14 10:21:45;;;;;;;;;9.00;9.00;;;;;22.68;43.50;99807.53;4819985;29;8997;-73
2022/06/14 10:24:23;;;;;;;;;11.00;9.00;;;;;23.05;43.02;99805.84;4836627;29;8891;-73
2022/06/14 10:30:14;;;;;;;;;9.80;9.60;;;;;23.49;40.50;99805.47;4911004;28;8868;-72
2022/06/14 10:33:15;;;;;;;;;7.80;7.80;;;;;22.73;41.01;99816.19;4964605;28;8870;-73
2022/06/14 10:35:51;;;;;;;;;8.40;8.00;;;;;22.55;41.03;99799.28;4960605;28;8878;-73
2022/06/14 10:38:40;;;;;;;;;7.00;7.00;;;;;22.86;41.53;99800.50;4980667;28;8854;-70
2022/06/14 10:41:19;;;;;;;;;8.80;8.80;;;;;22.95;41.03;99801.88;4967697;28;8874;-67
2022/06/14 10:43:57;;;;;;;;;10.00;10.00;;;;;22.81;41.19;99796.34;4925915;28;8868;-69
2022/06/14 10:46:30;;;;;;;;;10.20;8.80;;;;;22.72;42.53;99797.63;5032222;28;8842;-66
2022/06/14 10:49:19;;;;;;;;;10.40;10.00;;;;;22.91;42.18;99793.19;5031762;27;8852;-66
2022/06/14 10:52:05;;;;;;;;;9.00;9.00;;;;;22.93;42.04;99796.63;5133354;27;8837;-67
2022/06/14 10:54:46;;;;;;;;;7.20;7.20;;;;;22.74;40.83;99791.31;5074147;28;8859;-68
2022/06/14 10:57:38;;;;;;;;;7.00;7.00;;;;;23.21;42.54;99787.34;5140809;27;8889;-65
2022/06/14 11:00:33;;;;;;;;;7.80;7.00;;;;;23.67;41.63;99778.88;5093541;27;8839;-66
2022/06/14 11:03:35;;;;;;;;;10.60;9.80;;;;;23.38;41.53;99785.66;5059471;28;8854;-68
2022/06/14 11:06:20;;;;;;;;;10.60;9.40;;;;;23.41;39.55;99774.88;5047046;28;8834;-66
2022/06/14 11:09:00;;;;;;;;;8.20;8.20;;;;;23.72;39.78;99767.06;5023130;28;8904;-70
2022/06/14 11:11:48;;;;;;;;;8.40;8.40;;;;;24.13;39.90;99764.03;5045706;28;8908;-68
2022/06/14 11:14:26;;;;;;;;;8.00;8.00;;;;;23.13;41.25;99778.88;5064169;28;8990;-70
2022/06/14 11:17:19;;;;;;;;;9.80;9.80;;;;;23.14;41.71;99769.97;5065750;28;8832;-68
2022/06/14 11:20:01;;;;;;;;;8.00;8.00;;;;;23.75;41.02;99774.00;5045830;28;8946;-72
2022/06/14 11:22:40;;;;;;;;;8.20;7.60;;;;;23.98;36.52;99775.50;5045934;28;8872;-67
2022/06/14 11:25:30;;;;;;;;;7.00;7.00;;;;;23.72;36.59;99774.16;5063767;28;8863;-70
2022/06/14 11:28:08;;;;;;;;;7.40;7.40;;;;;23.93;37.05;99767.78;5062537;28;8946;-65
2022/06/14 11:30:57;;;;;;;;;6.80;6.80;;;;;24.37;37.39;99761.00;5069762;28;8991;-68
2022/06/14 11:33:49;;;;;;;;;6.00;6.00;;;;;25.07;37.22;99747.41;5066003;28;8836;-67
2022/06/14 11:36:39;;;;;;;;;6.00;6.00;;;;;25.59;35.74;99746.16;5071222;28;9586;-66
2022/06/14 11:39:23;;;;;;;;;7.00;7.00;;;;;25.07;35.00;99736.72;5056747;28;8844;-67
2022/06/14 11:41:52;;;;;;;;;8.20;8.20;;;;;25.40;35.82;99746.41;5092224;27;8837;-67
2022/06/14 11:44:43;;;;;;;;;6.20;6.20;;;;;26.02;34.50;99744.47;5129353;27;8854;-68
2022/06/14 11:47:18;;;;;;;;;9.60;9.00;;;;;26.37;32.30;99728.06;5129010;27;8846;-67
2022/06/14 11:49:57;;;;;;;;;8.40;8.40;;;;;26.12;32.84;99738.56;5109200;27;8944;-69
2022/06/14 11:52:52;;;;;;;;;7.20;7.20;;;;;25.29;34.22;99739.91;5118908;27;8842;-71
2022/06/14 11:55:27;;;;;;;;;6.00;6.00;;;;;25.40;32.94;99733.91;5128927;27;8845;-69
2022/06/14 11:58:12;;;;;;;;;5.80;5.80;;;;;25.26;31.66;99732.06;5109943;27;8813;-68
2022/06/14 12:00:57;;;;;;;;;7.20;7.20;;;;;24.95;32.86;99738.25;5126945;27;8841;-65
2022/06/14 12:03:52;;;;;;;;;5.80;5.80;;;;;24.97;31.80;99732.84;5117531;27;8887;-65
2022/06/14 12:06:33;;;;;;;;;7.20;7.20;;;;;25.59;31.87;99720.31;5071894;28;8870;-67
2022/06/14 12:09:27;;;;;;;;;8.20;7.80;;;;;26.24;31.42;99716.41;5139788;27;8840;-69
2022/06/14 12:12:00;;;;;;;;;6.00;6.00;;;;;27.02;31.30;99714.06;5148607;27;8850;-66
2022/06/14 12:14:56;;;;;;;;;5.80;5.00;;;;;27.95;29.82;99715.91;5144172;27;8850;-68
2022/06/14 12:17:29;;;;;;;;;7.00;7.00;;;;;28.92;28.80;99704.44;5125167;27;8880;-66
2022/06/14 12:20:06;;;;;;;;;6.60;6.00;;;;;29.74;27.51;99704.53;5132569;27;8866;-69
2022/06/14 12:22:49;;;;;;;;;4.00;4.00;;;;;30.38;25.78;99696.88;5077954;27;8913;-69
2022/06/14 12:28:17;;;;;;;;;8.20;8.20;;;;;27.57;28.18;99716.69;5095819;27;9665;-66
2022/06/14 12:30:48;;;;;;;;;7.00;7.00;;;;;27.93;26.68;99709.78;5149609;27;8831;-66
2022/06/14 12:33:29;;;;;;;;;5.60;5.00;;;;;28.22;26.87;99704.19;5149475;27;8895;-68
2022/06/14 12:36:08;;;;;;;;;5.40;5.40;;;;;28.92;27.48;99698.19;5149304;27;9095;-68
2022/06/14 12:38:42;;;;;;;;;7.80;7.80;;;;;27.66;26.20;99723.25;5149396;27;8924;-68
2022/06/14 12:41:17;;;;;;;;;6.80;5.40;;;;;27.06;27.60;99701.34;5149248;27;8851;-68
2022/06/14 12:44:03;;;;;;;;;5.00;4.00;;;;;27.12;27.03;99702.75;5149546;27;8815;-71
2022/06/14 12:46:38;;;;;;;;;7.60;7.60;;;;;27.02;27.72;99694.47;5149482;27;8835;-70
2022/06/14 12:49:14;;;;;;;;;7.40;7.00;;;;;27.18;27.01;99700.53;5149163;27;8850;-71
2022/06/14 12:51:51;;;;;;;;;6.40;5.80;;;;;27.49;26.38;99700.31;5148852;27;8941;-70
2022/06/14 12:54:30;;;;;;;;;6.00;6.00;;;;;26.93;25.36;99695.09;5149657;27;8827;-71